Time;durP1;ratioP1;P1;durP2;ratioP2;P2;SDS_P1;SDS_P2;PMS_P1;PMS_P2;Temp;Humidity;BMP_temperature;BMP_pressure;BME280_temperature;BME280_humidity;BME280_pressure;Samples;Min_cycle;Max_cycle;Signal;HPM_P1;HPM_P2
2023/08/06 00:00:02;;;;;;;6.75;2.97;;;;;;;;;;5113222;28;20297;-66
2023/08/06 00:02:28;;;;;;;5.05;2.80;;;;;;;;;;5112453;28;20027;-66
2023/08/06 00:04:53;;;;;;;4.10;2.50;;;;;;;;;;5101922;28;20371;-68
2023/08/06 00:07:18;;;;;;;7.13;2.93;;;;;;;;;;5110339;28;20304;-66
2023/08/06 00:09:43;;;;;;;5.33;2.57;;;;;;;;;;5104258;28;20278;-65
2023/08/06 00:12:09;;;;;;;5.03;2.40;;;;;;;;;;5094181;28;20288;-66
2023/08/06 00:14:34;;;;;;;6.87;2.50;;;;;;;;;;5109719;28;20265;-66
2023/08/06 00:16:59;;;;;;;8.30;2.63;;;;;;;;;;5100701;28;20285;-66
2023/08/06 00:19:24;;;;;;;6.63;2.20;;;;;;;;;;5106021;28;20047;-66
2023/08/06 00:21:49;;;;;;;5.47;2.30;;;;;;;;;;5089807;28;20045;-66
2023/08/06 00:24:15;;;;;;;3.70;2.00;;;;;;;;;;5112620;28;20272;-66
2023/08/06 00:26:40;;;;;;;4.23;2.40;;;;;;;;;;5105257;28;20313;-67
2023/08/06 00:29:05;;;;;;;4.97;2.40;;;;;;;;;;5100073;28;20413;-66
2023/08/06 00:31:30;;;;;;;5.20;2.53;;;;;;;;;;5105687;28;20059;-66
2023/08/06 00:33:56;;;;;;;4.30;2.47;;;;;;;;;;5095093;28;20271;-66
2023/08/06 00:36:21;;;;;;;3.38;2.30;;;;;;;;;;5107239;28;20069;-66
2023/08/06 00:38:46;;;;;;;4.15;2.72;;;;;;;;;;5107469;28;20068;-66
2023/08/06 00:41:11;;;;;;;7.93;2.78;;;;;;;;;;5106425;28;20019;-66
2023/08/06 00:43:37;;;;;;;5.15;2.40;;;;;;;;;;5103972;28;20054;-66
2023/08/06 00:46:02;;;;;;;6.30;2.92;;;;;;;;;;5105110;28;20019;-66
2023/08/06 00:48:27;;;;;;;3.72;1.95;;;;;;;;;;5094069;28;20035;-66
2023/08/06 00:50:52;;;;;;;9.05;2.88;;;;;;;;;;5106908;28;20035;-66
2023/08/06 00:53:18;;;;;;;6.78;2.88;;;;;;;;;;5093800;28;20020;-66
2023/08/06 00:55:44;;;;;;;4.70;2.15;;;;;;;;;;5095736;28;20031;-65
2023/08/06 00:58:09;;;;;;;3.67;1.70;;;;;;;;;;5112431;28;20436;-66
2023/08/06 01:00:35;;;;;;;5.37;2.83;;;;;;;;;;5110704;28;20023;-66
2023/08/06 01:03:00;;;;;;;5.75;2.25;;;;;;;;;;5092666;28;20632;-66
2023/08/06 01:05:26;;;;;;;4.53;2.33;;;;;;;;;;5093167;28;20024;-66
2023/08/06 01:08:12;;;;;;;3.50;2.03;;;;;;;;;;5092652;28;20381;-66
2023/08/06 01:10:51;;;;;;;4.28;1.92;;;;;;;;;;5094739;28;20070;-65
2023/08/06 01:13:20;;;;;;;5.40;2.47;;;;;;;;;;5101164;28;20502;-65
2023/08/06 01:15:49;;;;;;;3.15;1.65;;;;;;;;;;5092543;28;20379;-65
2023/08/06 01:18:15;;;;;;;4.50;2.33;;;;;;;;;;5092130;28;20507;-65
2023/08/06 01:20:40;;;;;;;4.78;2.58;;;;;;;;;;5105448;28;20111;-65
2023/08/06 01:23:06;;;;;;;5.57;2.25;;;;;;;;;;5111551;28;20088;-66
2023/08/06 01:25:35;;;;;;;3.07;1.90;;;;;;;;;;5112312;28;20038;-65
2023/08/06 01:28:17;;;;;;;5.53;2.00;;;;;;;;;;5092646;28;20304;-65
2023/08/06 01:30:42;;;;;;;4.88;2.42;;;;;;;;;;5106652;28;20030;-66
2023/08/06 01:33:09;;;;;;;4.40;2.67;;;;;;;;;;5111158;28;20038;-66
2023/08/06 01:35:35;;;;;;;4.88;2.40;;;;;;;;;;5097586;28;20017;-66
2023/08/06 01:38:01;;;;;;;5.30;2.35;;;;;;;;;;5105008;28;20065;-65
2023/08/06 01:40:28;;;;;;;5.20;2.15;;;;;;;;;;5097868;28;20524;-65
2023/08/06 01:42:53;;;;;;;6.75;2.25;;;;;;;;;;5104063;28;20024;-65
2023/08/06 01:45:18;;;;;;;5.35;2.38;;;;;;;;;;5102286;28;20072;-65
2023/08/06 01:47:44;;;;;;;4.72;2.33;;;;;;;;;;5094444;28;20070;-65
2023/08/06 01:50:09;;;;;;;4.43;2.20;;;;;;;;;;5106264;28;20064;-65
2023/08/06 01:52:34;;;;;;;5.72;2.33;;;;;;;;;;5112170;28;20084;-65
2023/08/06 01:54:59;;;;;;;5.13;2.10;;;;;;;;;;5110536;28;20027;-65
2023/08/06 01:57:25;;;;;;;5.07;2.53;;;;;;;;;;5102975;28;20028;-65
2023/08/06 01:59:50;;;;;;;4.83;1.97;;;;;;;;;;5102565;28;20401;-66
2023/08/06 02:02:15;;;;;;;6.88;2.50;;;;;;;;;;5105452;28;20686;-65
2023/08/06 02:04:40;;;;;;;5.97;2.60;;;;;;;;;;5107048;28;20453;-66
2023/08/06 02:07:06;;;;;;;4.30;2.10;;;;;;;;;;5101955;28;20039;-65
2023/08/06 02:09:31;;;;;;;7.00;3.28;;;;;;;;;;5104371;28;20281;-65
2023/08/06 02:11:57;;;;;;;6.00;2.70;;;;;;;;;;5104043;28;20462;-64
2023/08/06 02:14:22;;;;;;;6.55;2.40;;;;;;;;;;5094798;28;20102;-64
2023/08/06 02:16:47;;;;;;;6.70;3.43;;;;;;;;;;5105626;28;20390;-64
2023/08/06 02:19:13;;;;;;;6.40;2.63;;;;;;;;;;5101641;28;20348;-64
2023/08/06 02:21:38;;;;;;;6.72;3.17;;;;;;;;;;5108721;28;20370;-64
2023/08/06 02:24:03;;;;;;;6.20;2.70;;;;;;;;;;5102062;28;20031;-64
2023/08/06 02:26:28;;;;;;;6.10;3.35;;;;;;;;;;5102991;28;20732;-65
2023/08/06 02:28:54;;;;;;;5.90;3.47;;;;;;;;;;5107990;28;20451;-64
2023/08/06 02:31:19;;;;;;;8.07;3.20;;;;;;;;;;5103741;28;20019;-64
2023/08/06 02:33:44;;;;;;;3.92;2.63;;;;;;;;;;5098111;28;20254;-64
2023/08/06 02:36:09;;;;;;;8.60;3.50;;;;;;;;;;5108262;28;20022;-64
2023/08/06 02:38:35;;;;;;;5.70;3.30;;;;;;;;;;5103324;28;20289;-64
2023/08/06 02:41:03;;;;;;;4.55;3.00;;;;;;;;;;5103716;28;20027;-64
2023/08/06 02:43:29;;;;;;;6.00;2.92;;;;;;;;;;5103304;28;20031;-64
2023/08/06 02:45:56;;;;;;;7.68;3.60;;;;;;;;;;5108797;28;20027;-64
2023/08/06 02:48:21;;;;;;;5.80;3.75;;;;;;;;;;5094576;28;20489;-64
2023/08/06 02:50:47;;;;;;;5.55;3.03;;;;;;;;;;5090937;28;20102;-65
2023/08/06 02:53:12;;;;;;;7.57;3.90;;;;;;;;;;5109346;28;20026;-64
2023/08/06 02:55:37;;;;;;;6.22;4.20;;;;;;;;;;5105472;28;20273;-64
2023/08/06 02:58:02;;;;;;;6.47;3.60;;;;;;;;;;5103991;28;20037;-64
2023/08/06 03:00:28;;;;;;;6.47;3.50;;;;;;;;;;5096762;28;20035;-64
2023/08/06 03:02:53;;;;;;;6.60;4.03;;;;;;;;;;5105822;28;20274;-64
2023/08/06 03:05:18;;;;;;;6.32;3.60;;;;;;;;;;5080211;28;20023;-64
2023/08/06 03:07:44;;;;;;;4.97;3.55;;;;;;;;;;5063424;28;20076;-64
2023/08/06 03:10:09;;;;;;;7.63;3.95;;;;;;;;;;5097915;28;20031;-64
2023/08/06 03:12:34;;;;;;;6.45;3.53;;;;;;;;;;5101933;28;20376;-64
2023/08/06 03:14:59;;;;;;;6.60;4.35;;;;;;;;;;5104767;28;20016;-64
2023/08/06 03:17:25;;;;;;;7.13;3.97;;;;;;;;;;5107005;28;20440;-64
2023/08/06 03:19:50;;;;;;;6.53;3.73;;;;;;;;;;5107456;28;20378;-64
2023/08/06 03:22:15;;;;;;;4.53;3.60;;;;;;;;;;5107662;28;20281;-64
2023/08/06 03:24:40;;;;;;;5.57;3.78;;;;;;;;;;5110187;28;20032;-64
2023/08/06 03:27:06;;;;;;;6.43;3.85;;;;;;;;;;5104632;28;20038;-64
2023/08/06 03:29:31;;;;;;;7.03;3.97;;;;;;;;;;5107629;28;20058;-65
2023/08/06 03:31:56;;;;;;;10.57;4.15;;;;;;;;;;5110351;28;20111;-64
2023/08/06 03:34:21;;;;;;;7.63;3.90;;;;;;;;;;5104737;28;20140;-64
2023/08/06 03:36:47;;;;;;;6.37;3.30;;;;;;;;;;5110253;28;20638;-64
2023/08/06 03:39:13;;;;;;;5.32;3.85;;;;;;;;;;5110567;28;20333;-65
2023/08/06 03:41:39;;;;;;;7.47;4.10;;;;;;;;;;5105479;28;20016;-65
2023/08/06 03:44:04;;;;;;;5.93;3.70;;;;;;;;;;5113716;28;20026;-65
2023/08/06 03:46:32;;;;;;;8.25;4.05;;;;;;;;;;5103487;28;20110;-65
2023/08/06 03:48:57;;;;;;;7.47;3.92;;;;;;;;;;5093501;28;20085;-65
2023/08/06 03:51:22;;;;;;;12.95;4.05;;;;;;;;;;5107507;28;20027;-65
2023/08/06 03:53:47;;;;;;;6.03;4.10;;;;;;;;;;5106391;28;20028;-65
2023/08/06 03:56:13;;;;;;;6.90;4.13;;;;;;;;;;5106362;28;20609;-65
2023/08/06 03:58:38;;;;;;;8.30;4.43;;;;;;;;;;5105741;28;20648;-65
2023/08/06 04:01:03;;;;;;;8.87;4.07;;;;;;;;;;5095743;28;20278;-65
2023/08/06 04:03:29;;;;;;;9.32;4.40;;;;;;;;;;5095986;28;20270;-65
2023/08/06 04:05:54;;;;;;;9.45;4.95;;;;;;;;;;5090533;28;20028;-65
2023/08/06 04:08:19;;;;;;;8.73;5.03;;;;;;;;;;5093325;28;20657;-65
2023/08/06 04:10:45;;;;;;;6.05;4.57;;;;;;;;;;5096800;28;20426;-65
2023/08/06 04:13:10;;;;;;;8.50;5.40;;;;;;;;;;5103088;28;20031;-65
2023/08/06 04:15:35;;;;;;;9.77;4.90;;;;;;;;;;5106474;28;20116;-64
2023/08/06 04:18:00;;;;;;;8.27;5.05;;;;;;;;;;5093406;28;20282;-64
2023/08/06 04:20:26;;;;;;;8.77;5.43;;;;;;;;;;5093398;28;20036;-64
2023/08/06 04:22:51;;;;;;;7.45;5.45;;;;;;;;;;5103703;28;20270;-64
2023/08/06 04:25:20;;;;;;;6.53;4.72;;;;;;;;;;5096282;28;20471;-64
2023/08/06 04:27:46;;;;;;;7.85;4.47;;;;;;;;;;5093084;28;20117;-64
2023/08/06 04:30:12;;;;;;;7.88;4.68;;;;;;;;;;5092980;28;20099;-64
2023/08/06 04:32:37;;;;;;;5.68;4.63;;;;;;;;;;5104461;28;20024;-64
2023/08/06 04:35:03;;;;;;;5.80;4.03;;;;;;;;;;5111910;28;20019;-64
2023/08/06 04:37:28;;;;;;;6.22;3.97;;;;;;;;;;5112239;28;20020;-64
2023/08/06 04:39:53;;;;;;;7.18;4.78;;;;;;;;;;5111871;28;20028;-64
2023/08/06 04:42:18;;;;;;;5.70;4.68;;;;;;;;;;5113354;28;20431;-64
2023/08/06 04:44:43;;;;;;;8.45;5.05;;;;;;;;;;5111398;28;20048;-65
2023/08/06 04:47:09;;;;;;;7.67;4.60;;;;;;;;;;5106005;28;20027;-64
2023/08/06 04:49:34;;;;;;;5.60;4.35;;;;;;;;;;5092022;28;20288;-64
2023/08/06 04:51:59;;;;;;;7.45;4.40;;;;;;;;;;5092842;28;20020;-64
2023/08/06 04:54:25;;;;;;;5.90;4.15;;;;;;;;;;5092965;28;20030;-64
2023/08/06 04:56:50;;;;;;;6.53;3.67;;;;;;;;;;5111962;28;20462;-64
2023/08/06 04:59:15;;;;;;;7.33;4.10;;;;;;;;;;5112541;28;20636;-64
2023/08/06 05:01:40;;;;;;;4.03;3.13;;;;;;;;;;5098360;28;20641;-64
2023/08/06 05:04:06;;;;;;;5.13;3.53;;;;;;;;;;5112101;28;20055;-67
2023/08/06 05:06:31;;;;;;;4.23;3.27;;;;;;;;;;5109985;28;20277;-65
2023/08/06 05:08:56;;;;;;;3.97;2.67;;;;;;;;;;5109586;28;20277;-65
2023/08/06 05:11:21;;;;;;;4.13;2.63;;;;;;;;;;5101037;28;20277;-64
2023/08/06 05:13:47;;;;;;;3.42;2.40;;;;;;;;;;5111440;28;20472;-64
2023/08/06 05:16:12;;;;;;;3.80;2.33;;;;;;;;;;5108908;28;20020;-65
2023/08/06 05:18:37;;;;;;;4.17;2.63;;;;;;;;;;5106656;28;20080;-64
2023/08/06 05:21:03;;;;;;;4.13;2.63;;;;;;;;;;5112387;28;20366;-65
2023/08/06 05:23:28;;;;;;;3.10;1.92;;;;;;;;;;5106448;28;20065;-63
2023/08/06 05:25:53;;;;;;;3.50;2.27;;;;;;;;;;5100504;28;20070;-65
2023/08/06 05:28:18;;;;;;;3.75;2.20;;;;;;;;;;5109914;28;20280;-64
2023/08/06 05:30:43;;;;;;;2.92;1.67;;;;;;;;;;5100833;28;20024;-64
2023/08/06 05:33:09;;;;;;;2.23;1.30;;;;;;;;;;5103286;28;20016;-65
2023/08/06 05:35:34;;;;;;;3.38;1.90;;;;;;;;;;5100071;28;20278;-65
2023/08/06 05:37:59;;;;;;;3.17;2.57;;;;;;;;;;5110195;28;20024;-66
2023/08/06 05:40:25;;;;;;;3.70;2.55;;;;;;;;;;5099154;28;20321;-63
2023/08/06 05:42:50;;;;;;;3.55;2.72;;;;;;;;;;5111610;28;20028;-62
2023/08/06 05:45:15;;;;;;;3.75;2.63;;;;;;;;;;5103967;28;20047;-64
2023/08/06 05:47:41;;;;;;;4.45;2.67;;;;;;;;;;5090889;28;20024;-64
2023/08/06 05:50:06;;;;;;;3.40;2.13;;;;;;;;;;5091090;28;20437;-65
2023/08/06 05:52:32;;;;;;;3.63;1.63;;;;;;;;;;5091840;28;20111;-65
2023/08/06 05:54:57;;;;;;;2.40;1.63;;;;;;;;;;5110389;28;20051;-64
2023/08/06 05:57:22;;;;;;;2.83;1.63;;;;;;;;;;5111681;28;20770;-64
2023/08/06 05:59:47;;;;;;;3.83;1.77;;;;;;;;;;5111097;28;20114;-64
2023/08/06 06:02:13;;;;;;;3.60;1.77;;;;;;;;;;5111456;28;20378;-64
2023/08/06 06:04:38;;;;;;;2.13;1.58;;;;;;;;;;5111062;28;20314;-63
2023/08/06 06:07:03;;;;;;;2.60;1.58;;;;;;;;;;5111680;28;20047;-64
2023/08/06 06:09:29;;;;;;;2.40;1.80;;;;;;;;;;5105459;28;20024;-64
2023/08/06 06:11:54;;;;;;;3.45;2.10;;;;;;;;;;5104309;28;20023;-64
2023/08/06 06:14:19;;;;;;;2.78;2.05;;;;;;;;;;5110956;28;20023;-64
2023/08/06 06:16:45;;;;;;;2.80;1.73;;;;;;;;;;5111291;28;20428;-64
2023/08/06 06:19:10;;;;;;;2.60;1.58;;;;;;;;;;5105072;28;20067;-64
2023/08/06 06:21:37;;;;;;;2.72;1.85;;;;;;;;;;5091902;28;20103;-66
2023/08/06 06:24:03;;;;;;;3.55;2.20;;;;;;;;;;5090810;28;20122;-64
2023/08/06 06:26:29;;;;;;;4.47;2.28;;;;;;;;;;5093080;28;20032;-66
2023/08/06 06:28:54;;;;;;;3.10;2.50;;;;;;;;;;5097485;28;20428;-65
2023/08/06 06:31:19;;;;;;;5.22;3.95;;;;;;;;;;5110238;28;20265;-63
2023/08/06 06:33:44;;;;;;;5.87;4.57;;;;;;;;;;5116695;28;20111;-65
2023/08/06 06:36:10;;;;;;;6.47;4.85;;;;;;;;;;5117154;28;20284;-63
2023/08/06 06:38:35;;;;;;;5.68;4.75;;;;;;;;;;5113972;28;20051;-64
2023/08/06 06:41:00;;;;;;;7.23;5.87;;;;;;;;;;5109738;28;20591;-64
2023/08/06 06:43:25;;;;;;;6.63;5.07;;;;;;;;;;5115537;28;20312;-64
2023/08/06 06:45:55;;;;;;;7.32;5.50;;;;;;;;;;5116236;28;20542;-64
2023/08/06 06:48:21;;;;;;;6.60;5.82;;;;;;;;;;5100219;28;20039;-64
2023/08/06 06:50:47;;;;;;;6.82;5.95;;;;;;;;;;5097661;28;20028;-64
2023/08/06 06:53:12;;;;;;;6.68;5.60;;;;;;;;;;5100414;28;20402;-65
2023/08/06 06:55:37;;;;;;;8.13;3.22;;;;;;;;;;5117343;28;20027;-65
2023/08/06 06:58:03;;;;;;;3.80;2.70;;;;;;;;;;5115077;28;20019;-64
2023/08/06 07:00:28;;;;;;;3.37;2.10;;;;;;;;;;5100603;28;20304;-64
2023/08/06 07:02:54;;;;;;;3.30;1.80;;;;;;;;;;5110636;28;20940;-64
2023/08/06 07:05:19;;;;;;;4.30;1.80;;;;;;;;;;5061168;28;20678;-64
2023/08/06 07:07:44;;;;;;;3.65;2.08;;;;;;;;;;5107580;28;20043;-63
2023/08/06 07:10:10;;;;;;;2.65;1.50;;;;;;;;;;5096762;28;20020;-63
2023/08/06 07:12:36;;;;;;;2.95;1.85;;;;;;;;;;5097462;28;20055;-64
2023/08/06 07:15:02;;;;;;;2.08;1.15;;;;;;;;;;5097191;28;20016;-64
2023/08/06 07:17:27;;;;;;;2.22;1.13;;;;;;;;;;5103217;28;20538;-64
2023/08/06 07:19:53;;;;;;;1.50;0.80;;;;;;;;;;5104548;28;20032;-64
2023/08/06 07:22:18;;;;;;;1.67;0.80;;;;;;;;;;5108510;28;20277;-64
2023/08/06 07:24:43;;;;;;;2.10;1.17;;;;;;;;;;5117161;28;20261;-63
2023/08/06 07:27:08;;;;;;;2.13;1.10;;;;;;;;;;5117272;28;20015;-62
2023/08/06 07:29:34;;;;;;;3.20;1.70;;;;;;;;;;5116060;28;20668;-65
2023/08/06 07:31:59;;;;;;;3.63;2.10;;;;;;;;;;5115143;28;20103;-66
2023/08/06 07:34:25;;;;;;;3.10;1.95;;;;;;;;;;5105887;28;20455;-65
2023/08/06 07:36:50;;;;;;;3.90;2.30;;;;;;;;;;5097039;28;20024;-64
2023/08/06 07:39:16;;;;;;;3.28;2.40;;;;;;;;;;5112195;28;20031;-64
2023/08/06 07:41:41;;;;;;;4.45;3.50;;;;;;;;;;5112110;28;20024;-63
2023/08/06 07:44:07;;;;;;;6.43;4.10;;;;;;;;;;5102691;28;20099;-64
2023/08/06 07:46:32;;;;;;;5.57;4.75;;;;;;;;;;5109834;28;20032;-64
2023/08/06 07:48:58;;;;;;;7.05;5.57;;;;;;;;;;5101078;28;20015;-64
2023/08/06 07:51:23;;;;;;;7.80;6.13;;;;;;;;;;5104521;28;20036;-66
2023/08/06 07:53:48;;;;;;;7.93;6.43;;;;;;;;;;5109703;28;20269;-65
2023/08/06 07:56:13;;;;;;;8.90;7.00;;;;;;;;;;5103981;28;20505;-65
2023/08/06 07:58:38;;;;;;;7.82;6.90;;;;;;;;;;5109111;28;20663;-64
2023/08/06 08:01:05;;;;;;;8.33;7.43;;;;;;;;;;5103951;28;20016;-66
2023/08/06 08:03:30;;;;;;;8.93;6.80;;;;;;;;;;5108693;28;20277;-63
2023/08/06 08:05:59;;;;;;;7.20;6.10;;;;;;;;;;5103893;28;20489;-66
2023/08/06 08:08:24;;;;;;;6.80;5.57;;;;;;;;;;5102801;28;20317;-63
2023/08/06 08:10:49;;;;;;;6.55;5.32;;;;;;;;;;5101567;28;20085;-63
2023/08/06 08:13:15;;;;;;;6.28;5.55;;;;;;;;;;5112945;28;20055;-65
2023/08/06 08:15:40;;;;;;;5.45;4.70;;;;;;;;;;5095166;28;20043;-65
2023/08/06 08:18:05;;;;;;;6.35;4.80;;;;;;;;;;5069158;28;20032;-65
2023/08/06 08:20:35;;;;;;;5.85;4.28;;;;;;;;;;5050338;28;20072;-64
2023/08/06 08:23:00;;;;;;;7.13;4.18;;;;;;;;;;5051574;28;20020;-64
2023/08/06 08:25:26;;;;;;;4.25;3.50;;;;;;;;;;5064120;28;20024;-65
2023/08/06 08:27:52;;;;;;;4.18;2.70;;;;;;;;;;5061032;28;20084;-67
2023/08/06 08:30:17;;;;;;;8.75;3.33;;;;;;;;;;5059694;28;20023;-65
2023/08/06 08:32:42;;;;;;;5.70;2.92;;;;;;;;;;5058897;28;20083;-65
2023/08/06 08:35:08;;;;;;;3.67;3.08;;;;;;;;;;5050382;28;20028;-65
2023/08/06 08:37:33;;;;;;;6.85;3.65;;;;;;;;;;5065303;28;20028;-67
2023/08/06 08:39:58;;;;;;;5.60;3.38;;;;;;;;;;5064528;28;20865;-65
2023/08/06 08:42:24;;;;;;;5.88;3.08;;;;;;;;;;5086644;28;20085;-65
2023/08/06 08:44:49;;;;;;;5.55;3.42;;;;;;;;;;5107834;28;20069;-64
2023/08/06 08:47:16;;;;;;;5.88;3.30;;;;;;;;;;5101449;28;20028;-66
2023/08/06 08:49:42;;;;;;;5.75;2.67;;;;;;;;;;5104108;28;20106;-64
2023/08/06 08:52:11;;;;;;;5.53;3.47;;;;;;;;;;5105544;28;20513;-65
2023/08/06 08:54:38;;;;;;;6.15;3.22;;;;;;;;;;5103644;28;20047;-63
2023/08/06 08:57:03;;;;;;;5.70;3.08;;;;;;;;;;5103031;28;20462;-64
2023/08/06 08:59:29;;;;;;;7.97;3.45;;;;;;;;;;5098453;28;20027;-65
2023/08/06 09:01:55;;;;;;;7.18;3.25;;;;;;;;;;5095626;28;20035;-66
2023/08/06 09:04:20;;;;;;;4.60;2.53;;;;;;;;;;5098407;28;20020;-67
2023/08/06 09:06:55;;;;;;;6.28;2.85;;;;;;;;;;5097202;28;20502;-63
2023/08/06 09:09:23;;;;;;;4.65;2.60;;;;;;;;;;5101761;28;20481;-64
2023/08/06 09:11:49;;;;;;;12.52;2.97;;;;;;;;;;5112347;28;20465;-65
2023/08/06 09:14:14;;;;;;;5.85;3.13;;;;;;;;;;5109172;28;20027;-65
2023/08/06 09:16:40;;;;;;;6.60;2.50;;;;;;;;;;5093018;28;20024;-65
2023/08/06 09:19:09;;;;;;;5.80;2.88;;;;;;;;;;5093139;28;20504;-63
2023/08/06 09:21:36;;;;;;;6.43;2.75;;;;;;;;;;5093175;28;20093;-65
2023/08/06 09:24:06;;;;;;;11.15;3.53;;;;;;;;;;5108525;28;20505;-66
2023/08/06 09:26:34;;;;;;;9.48;3.13;;;;;;;;;;5103144;28;20127;-65
2023/08/06 09:29:00;;;;;;;7.88;2.67;;;;;;;;;;5097357;28;20020;-64
2023/08/06 09:31:32;;;;;;;8.80;2.90;;;;;;;;;;5105399;28;20031;-64
2023/08/06 09:33:59;;;;;;;10.82;2.80;;;;;;;;;;5093139;28;20470;-65
2023/08/06 09:36:24;;;;;;;8.00;2.72;;;;;;;;;;5092564;28;20036;-65
2023/08/06 09:38:49;;;;;;;10.30;2.90;;;;;;;;;;5091969;28;20085;-66
2023/08/06 09:41:26;;;;;;;8.02;2.78;;;;;;;;;;5092009;28;20353;-64
2023/08/06 09:43:51;;;;;;;7.78;2.78;;;;;;;;;;5092090;28;20381;-65
2023/08/06 09:46:16;;;;;;;10.50;3.42;;;;;;;;;;5105675;28;20129;-63
2023/08/06 09:48:44;;;;;;;8.82;3.55;;;;;;;;;;5091842;28;20428;-64
2023/08/06 09:51:10;;;;;;;6.65;3.38;;;;;;;;;;5103350;28;20016;-63
2023/08/06 09:53:36;;;;;;;8.02;3.72;;;;;;;;;;5104489;28;20027;-64
2023/08/06 09:56:02;;;;;;;9.27;3.00;;;;;;;;;;5107266;28;20055;-66
2023/08/06 09:58:28;;;;;;;7.97;3.85;;;;;;;;;;5097397;28;20051;-66
2023/08/06 10:00:53;;;;;;;8.30;4.25;;;;;;;;;;5102562;28;20363;-64
2023/08/06 10:03:18;;;;;;;8.32;4.20;;;;;;;;;;5104385;28;20042;-64
2023/08/06 10:05:44;;;;;;;7.35;3.80;;;;;;;;;;5095272;28;20089;-66
2023/08/06 10:08:09;;;;;;;10.23;4.60;;;;;;;;;;5104014;28;20008;-66
2023/08/06 10:10:37;;;;;;;10.68;4.80;;;;;;;;;;5091141;28;20429;-67
2023/08/06 10:13:04;;;;;;;10.35;3.70;;;;;;;;;;5058670;28;20912;-66
2023/08/06 10:15:31;;;;;;;6.97;4.10;;;;;;;;;;5062031;28;20024;-66
2023/08/06 10:17:57;;;;;;;8.68;3.03;;;;;;;;;;5104937;28;20020;-68
2023/08/06 10:20:23;;;;;;;10.20;3.65;;;;;;;;;;5098751;28;20104;-66
2023/08/06 10:23:04;;;;;;;10.68;3.97;;;;;;;;;;5110889;28;20081;-66
2023/08/06 10:25:33;;;;;;;10.95;3.53;;;;;;;;;;5109297;28;20579;-66
2023/08/06 10:27:59;;;;;;;7.50;3.30;;;;;;;;;;5110821;28;20022;-66
2023/08/06 10:30:26;;;;;;;11.20;3.75;;;;;;;;;;5108914;28;20386;-66
2023/08/06 10:33:02;;;;;;;6.93;2.95;;;;;;;;;;5110134;28;20054;-67
2023/08/06 10:35:29;;;;;;;5.82;2.78;;;;;;;;;;5109354;28;20028;-65
2023/08/06 10:37:57;;;;;;;7.90;3.03;;;;;;;;;;5111479;28;20493;-65
2023/08/06 10:40:23;;;;;;;8.70;3.10;;;;;;;;;;5109435;28;20073;-66
2023/08/06 10:42:48;;;;;;;4.40;2.40;;;;;;;;;;5109607;28;20016;-66
2023/08/06 10:45:17;;;;;;;11.80;2.60;;;;;;;;;;5109415;28;20020;-66
2023/08/06 10:47:43;;;;;;;4.85;1.77;;;;;;;;;;5104459;28;20269;-67
2023/08/06 10:50:11;;;;;;;6.93;1.70;;;;;;;;;;5068422;28;20981;-66
2023/08/06 10:52:36;;;;;;;6.72;1.83;;;;;;;;;;5060114;28;20032;-66
2023/08/06 10:55:02;;;;;;;7.22;2.50;;;;;;;;;;5055897;28;20070;-66
2023/08/06 10:57:27;;;;;;;5.43;2.00;;;;;;;;;;5047227;28;20040;-66
2023/08/06 10:59:52;;;;;;;5.53;1.80;;;;;;;;;;5058932;28;20900;-66
2023/08/06 11:02:17;;;;;;;5.85;1.50;;;;;;;;;;5050593;28;20020;-66
2023/08/06 11:04:43;;;;;;;3.70;1.27;;;;;;;;;;5053644;28;20892;-66
2023/08/06 11:07:09;;;;;;;4.18;1.58;;;;;;;;;;5058820;28;20277;-66
2023/08/06 11:09:35;;;;;;;4.00;1.05;;;;;;;;;;5051838;28;20209;-65
2023/08/06 11:12:00;;;;;;;5.60;1.10;;;;;;;;;;5053516;28;20849;-66
2023/08/06 11:14:25;;;;;;;2.80;1.10;;;;;;;;;;5059656;28;20814;-66
2023/08/06 11:16:51;;;;;;;3.93;1.07;;;;;;;;;;5053983;28;20874;-66
2023/08/06 11:19:16;;;;;;;2.33;0.90;;;;;;;;;;5053688;28;20549;-66
2023/08/06 11:21:43;;;;;;;4.05;1.23;;;;;;;;;;5063546;28;20891;-66
2023/08/06 11:24:10;;;;;;;3.25;0.82;;;;;;;;;;5102144;28;20081;-65
2023/08/06 11:26:36;;;;;;;2.47;0.73;;;;;;;;;;5102962;28;20028;-66
2023/08/06 11:29:02;;;;;;;2.22;0.68;;;;;;;;;;5108699;28;20035;-66
2023/08/06 11:31:27;;;;;;;2.60;0.93;;;;;;;;;;5112195;28;20015;-65
2023/08/06 11:33:53;;;;;;;3.47;0.85;;;;;;;;;;5077590;28;20086;-65
2023/08/06 11:36:31;;;;;;;3.08;1.02;;;;;;;;;;5063974;28;20028;-66
2023/08/06 11:38:57;;;;;;;2.88;1.10;;;;;;;;;;5060034;28;20084;-66
2023/08/06 11:41:23;;;;;;;3.13;1.38;;;;;;;;;;5073545;28;20028;-66
2023/08/06 11:43:48;;;;;;;3.30;1.30;;;;;;;;;;5061764;28;20854;-66
2023/08/06 11:46:13;;;;;;;4.78;1.50;;;;;;;;;;5101787;28;20027;-66
2023/08/06 11:48:52;;;;;;;4.50;1.70;;;;;;;;;;5095329;28;20104;-65
2023/08/06 11:51:17;;;;;;;3.65;1.55;;;;;;;;;;5093342;28;20375;-66
2023/08/06 11:53:46;;;;;;;3.85;1.95;;;;;;;;;;5094620;28;20047;-67
2023/08/06 11:56:11;;;;;;;5.05;2.13;;;;;;;;;;5104605;28;20111;-66
2023/08/06 11:58:37;;;;;;;4.82;1.98;;;;;;;;;;5094066;28;20372;-66
2023/08/06 12:01:02;;;;;;;6.00;2.55;;;;;;;;;;5106003;28;20027;-66
2023/08/06 12:03:30;;;;;;;5.32;2.40;;;;;;;;;;5094799;28;20534;-66
2023/08/06 12:05:55;;;;;;;4.00;1.80;;;;;;;;;;5107323;28;20051;-66
2023/08/06 12:08:20;;;;;;;5.03;2.28;;;;;;;;;;5058696;28;20781;-66
2023/08/06 12:10:46;;;;;;;5.90;2.10;;;;;;;;;;5063194;28;20062;-68
2023/08/06 12:13:12;;;;;;;4.85;1.40;;;;;;;;;;5086547;28;20023;-66
2023/08/06 12:15:38;;;;;;;5.50;1.30;;;;;;;;;;5097485;28;20058;-67
2023/08/06 12:18:03;;;;;;;5.95;1.40;;;;;;;;;;5095558;28;20028;-65
2023/08/06 12:20:29;;;;;;;4.78;1.67;;;;;;;;;;5097413;28;20038;-64
2023/08/06 12:22:54;;;;;;;7.32;1.60;;;;;;;;;;5095320;28;20038;-66
2023/08/06 12:25:19;;;;;;;5.28;1.70;;;;;;;;;;5095643;28;20028;-64
2023/08/06 12:27:45;;;;;;;4.07;1.40;;;;;;;;;;5112763;28;20466;-65
2023/08/06 12:30:11;;;;;;;5.65;1.48;;;;;;;;;;5102234;28;20068;-67
2023/08/06 12:32:37;;;;;;;2.45;1.02;;;;;;;;;;5096067;28;20475;-66
2023/08/06 12:35:02;;;;;;;4.13;1.50;;;;;;;;;;5099435;28;20022;-67
2023/08/06 12:37:28;;;;;;;3.10;1.25;;;;;;;;;;5098218;28;20020;-66
2023/08/06 12:39:53;;;;;;;4.10;1.10;;;;;;;;;;5098229;28;20096;-67
2023/08/06 12:42:18;;;;;;;4.20;1.53;;;;;;;;;;5096346;28;20039;-66
2023/08/06 12:44:44;;;;;;;4.05;1.40;;;;;;;;;;5095623;28;20297;-66
2023/08/06 12:47:09;;;;;;;4.28;1.20;;;;;;;;;;5096292;28;20024;-65
2023/08/06 12:49:34;;;;;;;5.90;1.48;;;;;;;;;;5105232;28;20477;-66
2023/08/06 12:52:00;;;;;;;4.50;0.95;;;;;;;;;;5094084;28;20024;-66
2023/08/06 12:54:25;;;;;;;5.57;1.45;;;;;;;;;;5093151;28;20112;-66
2023/08/06 12:56:50;;;;;;;4.93;1.30;;;;;;;;;;5093747;28;20047;-66
2023/08/06 12:59:16;;;;;;;3.97;1.30;;;;;;;;;;5092559;28;20032;-66
2023/08/06 13:01:42;;;;;;;3.55;1.40;;;;;;;;;;5093017;28;20379;-66
2023/08/06 13:04:07;;;;;;;5.05;1.40;;;;;;;;;;5103496;28;20080;-66
2023/08/06 13:06:36;;;;;;;3.13;1.08;;;;;;;;;;5105692;28;20498;-66
2023/08/06 13:09:05;;;;;;;5.38;1.15;;;;;;;;;;5093957;28;20024;-65
2023/08/06 13:11:31;;;;;;;2.30;1.00;;;;;;;;;;5101595;28;20027;-65
2023/08/06 13:14:07;;;;;;;1.92;0.80;;;;;;;;;;5110738;28;20016;-66
2023/08/06 13:16:32;;;;;;;2.65;0.88;;;;;;;;;;5111459;28;20030;-66
2023/08/06 13:18:58;;;;;;;3.30;1.48;;;;;;;;;;5096743;28;20099;-67
2023/08/06 13:21:23;;;;;;;3.17;1.48;;;;;;;;;;5109439;28;20031;-68
2023/08/06 13:23:48;;;;;;;3.33;1.67;;;;;;;;;;5107440;28;20059;-66
2023/08/06 13:26:15;;;;;;;5.03;1.53;;;;;;;;;;5110309;28;20355;-67
2023/08/06 13:28:41;;;;;;;4.15;2.05;;;;;;;;;;5108063;28;20265;-66
2023/08/06 13:31:06;;;;;;;2.85;1.52;;;;;;;;;;5110203;28;20687;-66
2023/08/06 13:33:31;;;;;;;3.10;1.48;;;;;;;;;;5108366;28;20023;-67
2023/08/06 13:35:57;;;;;;;3.97;1.17;;;;;;;;;;5110538;28;20024;-66
2023/08/06 13:38:22;;;;;;;4.45;1.88;;;;;;;;;;5109215;28;20020;-66
2023/08/06 13:40:47;;;;;;;3.08;1.27;;;;;;;;;;5110832;28;20386;-66
2023/08/06 13:43:13;;;;;;;3.58;1.23;;;;;;;;;;5110052;28;20063;-66
2023/08/06 13:45:38;;;;;;;3.45;1.40;;;;;;;;;;5111292;28;20114;-68
2023/08/06 13:48:03;;;;;;;5.28;1.92;;;;;;;;;;5098273;28;20063;-67
2023/08/06 13:50:29;;;;;;;6.55;1.30;;;;;;;;;;5111642;28;20015;-66
2023/08/06 13:52:55;;;;;;;3.28;1.10;;;;;;;;;;5111700;28;20031;-68
2023/08/06 13:55:20;;;;;;;3.35;1.40;;;;;;;;;;5073286;28;20502;-67
2023/08/06 13:57:46;;;;;;;5.10;1.60;;;;;;;;;;5091611;28;20058;-66
2023/08/06 14:00:11;;;;;;;5.18;1.90;;;;;;;;;;5101464;28;20102;-67
2023/08/06 14:02:36;;;;;;;4.03;1.60;;;;;;;;;;5087112;28;20490;-67
2023/08/06 14:05:02;;;;;;;3.63;1.50;;;;;;;;;;5060663;28;20031;-66
2023/08/06 14:07:27;;;;;;;4.20;1.35;;;;;;;;;;5060025;28;20016;-66
2023/08/06 14:09:52;;;;;;;6.10;1.45;;;;;;;;;;5048612;28;20787;-66
2023/08/06 14:12:18;;;;;;;3.80;1.30;;;;;;;;;;5053794;28;20056;-66
2023/08/06 14:14:43;;;;;;;3.70;1.13;;;;;;;;;;5049217;28;20025;-66
2023/08/06 14:17:08;;;;;;;3.15;1.20;;;;;;;;;;5104014;28;20103;-67
2023/08/06 14:19:33;;;;;;;2.92;1.17;;;;;;;;;;5101989;28;20439;-65
2023/08/06 14:21:58;;;;;;;4.60;1.30;;;;;;;;;;5107815;28;20023;-65
2023/08/06 14:24:24;;;;;;;3.22;1.30;;;;;;;;;;5110152;28;20270;-65
2023/08/06 14:26:49;;;;;;;2.73;0.80;;;;;;;;;;5109828;28;20060;-65
2023/08/06 14:29:14;;;;;;;3.22;1.23;;;;;;;;;;5111073;28;20661;-65
2023/08/06 14:31:40;;;;;;;4.75;1.33;;;;;;;;;;5091599;28;20027;-67
2023/08/06 14:34:05;;;;;;;3.40;1.45;;;;;;;;;;5111071;28;20527;-67